createdAt,value
2023-06-06T00:01:26.079Z,9.09
2023-06-06T00:03:56.847Z,9.03
2023-06-06T00:06:29.007Z,9.11
2023-06-06T00:08:57.772Z,9.10
2023-06-06T00:11:26.447Z,8.99
2023-06-06T00:13:54.990Z,9.01
2023-06-06T00:16:24.982Z,9.05
2023-06-06T00:18:54.223Z,9.03
2023-06-06T00:21:24.246Z,8.99
2023-06-06T00:23:53.706Z,8.92
2023-06-06T00:26:22.376Z,8.97
2023-06-06T00:28:51.430Z,8.98
2023-06-06T00:31:19.845Z,8.93
2023-06-06T00:33:48.385Z,8.98
2023-06-06T00:36:17.434Z,8.97
2023-06-06T00:38:48.372Z,8.99
2023-06-06T00:41:17.320Z,8.98
2023-06-06T00:43:46.554Z,8.96
2023-06-06T00:46:17.651Z,8.93
2023-06-06T00:48:50.813Z,8.87
2023-06-06T00:51:24.966Z,8.81
2023-06-06T00:53:56.500Z,8.79
2023-06-06T00:56:29.646Z,8.78
2023-06-06T00:59:02.695Z,8.84
2023-06-06T01:01:34.767Z,8.79
2023-06-06T01:04:05.814Z,8.79
2023-06-06T01:06:34.757Z,8.79
2023-06-06T01:09:09.760Z,8.82
2023-06-06T01:11:52.862Z,8.90
2023-06-06T01:14:26.128Z,8.83
2023-06-06T01:16:59.037Z,8.91
2023-06-06T01:19:30.890Z,8.90
2023-06-06T01:22:02.776Z,8.89
2023-06-06T01:24:31.852Z,8.88
2023-06-06T01:27:04.953Z,8.83
2023-06-06T01:29:33.654Z,8.73
2023-06-06T01:32:06.466Z,8.85
2023-06-06T01:34:40.170Z,8.87
2023-06-06T01:37:16.207Z,8.93
2023-06-06T01:39:49.336Z,8.89
2023-06-06T01:42:20.175Z,8.89
2023-06-06T01:44:50.623Z,8.83
2023-06-06T01:47:21.662Z,8.87
2023-06-06T01:49:50.520Z,8.93
2023-06-06T01:52:22.855Z,8.98
2023-06-06T01:54:51.717Z,8.95
2023-06-06T01:57:20.092Z,8.92
2023-06-06T01:59:51.854Z,8.88
2023-06-06T02:02:20.880Z,8.94
2023-06-06T02:04:49.713Z,8.94
2023-06-06T02:07:18.508Z,8.95
2023-06-06T02:09:49.275Z,8.97
2023-06-06T02:12:20.919Z,9.01
2023-06-06T02:14:49.682Z,8.99
2023-06-06T02:17:18.342Z,8.96
2023-06-06T02:19:47.245Z,8.99
2023-06-06T02:22:18.068Z,8.99
2023-06-06T02:24:46.538Z,9.02
2023-06-06T02:27:17.013Z,9.00
2023-06-06T02:29:45.684Z,9.11
2023-06-06T02:32:16.893Z,9.06
2023-06-06T02:34:45.566Z,9.14
2023-06-06T02:37:14.156Z,9.23
2023-06-06T02:39:42.743Z,9.21
2023-06-06T02:42:13.644Z,9.23
2023-06-06T02:44:48.943Z,9.28
2023-06-06T02:47:19.654Z,9.34
2023-06-06T02:49:48.082Z,9.44
2023-06-06T02:52:18.393Z,9.43
2023-06-06T02:54:46.892Z,9.51
2023-06-06T02:57:17.899Z,9.54
2023-06-06T02:59:47.836Z,9.62
2023-06-06T03:02:22.026Z,9.69
2023-06-06T03:04:50.932Z,9.77
2023-06-06T03:07:19.608Z,9.68
2023-06-06T03:09:48.697Z,9.87
2023-06-06T03:12:21.467Z,10.13
2023-06-06T03:14:57.728Z,10.04
2023-06-06T03:17:37.220Z,10.12
2023-06-06T03:20:09.144Z,10.23
2023-06-06T03:22:40.018Z,10.50
2023-06-06T03:25:09.296Z,10.72
2023-06-06T03:27:38.753Z,10.56
2023-06-06T03:30:13.754Z,10.61
2023-06-06T03:32:44.723Z,10.45
2023-06-06T03:35:16.019Z,10.49
2023-06-06T03:37:45.520Z,11.52
2023-06-06T03:40:17.796Z,11.81
2023-06-06T03:42:50.126Z,12.57
2023-06-06T03:45:20.385Z,12.61
2023-06-06T03:47:50.312Z,12.24
2023-06-06T03:50:22.949Z,12.13
2023-06-06T03:52:51.534Z,12.70
2023-06-06T03:55:20.920Z,12.36
2023-06-06T03:57:49.813Z,12.72
2023-06-06T04:00:20.432Z,12.41
2023-06-06T04:02:49.646Z,12.41
2023-06-06T04:05:19.244Z,12.33
2023-06-06T04:07:48.073Z,12.38
2023-06-06T04:10:16.557Z,12.27
2023-06-06T04:12:45.207Z,12.33
2023-06-06T04:15:13.801Z,12.39
2023-06-06T04:17:43.945Z,12.13
2023-06-06T04:20:13.547Z,12.40
2023-06-06T04:22:42.299Z,12.71
2023-06-06T04:25:16.095Z,12.59
2023-06-06T04:27:46.180Z,12.70
2023-06-06T04:30:15.075Z,12.42
2023-06-06T04:32:46.002Z,12.54
2023-06-06T04:35:14.756Z,12.74
2023-06-06T04:37:43.793Z,12.81
2023-06-06T04:40:12.930Z,12.81
2023-06-06T04:42:42.127Z,12.93
2023-06-06T04:45:11.985Z,12.68
2023-06-06T04:47:47.200Z,12.61
2023-06-06T04:50:18.479Z,12.92
2023-06-06T04:52:47.898Z,12.94
2023-06-06T04:55:19.748Z,12.88
2023-06-06T04:57:49.806Z,13.07
2023-06-06T05:00:18.672Z,13.11
2023-06-06T05:02:51.468Z,13.05
2023-06-06T05:05:20.310Z,12.99
2023-06-06T05:07:51.667Z,13.01
2023-06-06T05:10:20.387Z,12.94
2023-06-06T05:12:48.992Z,12.99
2023-06-06T05:15:17.817Z,13.05
2023-06-06T05:17:59.596Z,13.28
2023-06-06T05:20:28.582Z,13.19
2023-06-06T05:23:02.375Z,13.36
2023-06-06T05:25:31.545Z,13.43
2023-06-06T05:28:00.070Z,13.62
2023-06-06T05:30:29.768Z,13.63
2023-06-06T05:32:59.875Z,13.79
2023-06-06T05:35:28.448Z,14.00
2023-06-06T05:37:58.263Z,13.93
2023-06-06T05:40:26.988Z,14.01
2023-06-06T05:42:55.456Z,14.14
2023-06-06T05:45:24.231Z,14.23
2023-06-06T05:47:52.600Z,14.26
2023-06-06T05:50:22.573Z,14.32
2023-06-06T05:52:52.859Z,14.40
2023-06-06T05:55:31.781Z,14.05
2023-06-06T05:58:00.881Z,14.21
2023-06-06T06:00:37.429Z,14.40
2023-06-06T06:03:06.146Z,14.34
2023-06-06T06:05:36.555Z,14.56
2023-06-06T06:08:07.574Z,14.51
2023-06-06T06:10:37.711Z,14.48
2023-06-06T06:13:07.570Z,14.47
2023-06-06T06:15:43.168Z,14.56
2023-06-06T06:18:15.894Z,14.37
2023-06-06T06:20:46.057Z,14.40
2023-06-06T06:23:20.592Z,14.42
2023-06-06T06:25:49.356Z,14.37
2023-06-06T06:28:23.847Z,14.52
2023-06-06T06:30:52.578Z,14.64
2023-06-06T06:33:24.284Z,14.84
2023-06-06T06:35:56.264Z,14.91
2023-06-06T06:38:26.302Z,14.84
2023-06-06T06:40:55.265Z,14.96
2023-06-06T06:43:23.859Z,15.20
2023-06-06T06:46:02.083Z,15.09
2023-06-06T06:48:33.803Z,15.08
2023-06-06T06:51:03.957Z,15.28
2023-06-06T06:53:33.304Z,15.13
2023-06-06T06:56:02.339Z,15.23
2023-06-06T06:58:35.688Z,15.28
2023-06-06T07:01:12.232Z,15.26
2023-06-06T07:03:45.762Z,15.12
2023-06-06T07:06:16.559Z,15.22
2023-06-06T07:08:48.049Z,15.72
2023-06-06T07:11:19.435Z,15.78
2023-06-06T07:13:48.153Z,15.74
2023-06-06T07:16:21.565Z,15.89
2023-06-06T07:18:53.586Z,15.93
2023-06-06T07:21:24.146Z,16.00
2023-06-06T07:23:52.835Z,16.10
2023-06-06T07:26:27.660Z,16.43
2023-06-06T07:28:57.680Z,16.30
2023-06-06T07:31:29.259Z,15.93
2023-06-06T07:34:01.268Z,16.05
2023-06-06T07:36:32.553Z,16.33
2023-06-06T07:39:09.144Z,16.09
2023-06-06T07:41:37.787Z,16.08
2023-06-06T07:44:06.419Z,16.32
2023-06-06T07:46:35.267Z,16.33
2023-06-06T07:49:03.914Z,16.25
2023-06-06T07:51:34.960Z,16.76
2023-06-06T07:54:08.502Z,16.31
2023-06-06T07:56:38.840Z,16.42
2023-06-06T07:59:07.566Z,16.35
2023-06-06T08:01:37.230Z,16.55
2023-06-06T08:04:08.788Z,16.53
2023-06-06T08:06:41.083Z,16.60
2023-06-06T08:09:10.068Z,16.57
2023-06-06T08:11:38.794Z,16.63
2023-06-06T08:14:10.312Z,16.36
2023-06-06T08:16:41.936Z,16.33
2023-06-06T08:19:10.936Z,16.63
2023-06-06T08:21:41.109Z,16.61
2023-06-06T08:24:12.804Z,17.10
2023-06-06T08:26:41.374Z,17.16
2023-06-06T08:29:12.256Z,17.07
2023-06-06T08:31:40.822Z,16.90
2023-06-06T08:34:09.350Z,17.10
2023-06-06T08:36:42.743Z,17.11
2023-06-06T08:39:11.452Z,17.56
2023-06-06T08:41:50.845Z,17.47
2023-06-06T08:44:21.170Z,17.80
2023-06-06T08:46:52.373Z,18.35
2023-06-06T08:49:22.161Z,18.32
2023-06-06T08:51:54.141Z,18.56
2023-06-06T08:54:23.049Z,18.94
2023-06-06T08:56:53.094Z,18.65
2023-06-06T08:59:22.667Z,18.46
2023-06-06T09:01:52.761Z,18.50
2023-06-06T09:04:21.931Z,18.54
2023-06-06T09:06:58.036Z,18.30
2023-06-06T09:09:27.722Z,17.88
2023-06-06T09:11:56.387Z,17.81
2023-06-06T09:14:25.222Z,18.30
2023-06-06T09:16:53.943Z,19.12
2023-06-06T09:19:27.000Z,19.22
2023-06-06T09:22:00.336Z,19.12
2023-06-06T09:24:31.789Z,19.62
2023-06-06T09:27:00.545Z,19.31
2023-06-06T09:29:29.622Z,19.11
2023-06-06T09:32:01.921Z,19.13
2023-06-06T09:34:32.489Z,18.63
2023-06-06T09:37:06.818Z,18.69
2023-06-06T09:39:35.603Z,18.43
2023-06-06T09:42:09.509Z,18.56
2023-06-06T09:44:38.495Z,18.45
2023-06-06T09:47:07.852Z,18.11
2023-06-06T09:49:39.348Z,17.82
2023-06-06T09:52:15.461Z,17.93
2023-06-06T09:54:44.876Z,18.00
2023-06-06T09:57:18.420Z,18.25
2023-06-06T09:59:49.569Z,18.27
2023-06-06T10:02:22.990Z,18.63
2023-06-06T10:04:54.763Z,18.29
2023-06-06T10:07:25.535Z,18.39
2023-06-06T10:10:01.941Z,18.08
2023-06-06T10:12:33.993Z,17.92
2023-06-06T10:15:04.701Z,17.92
2023-06-06T10:17:37.257Z,18.23
2023-06-06T10:20:08.542Z,18.49
2023-06-06T10:22:39.136Z,18.72
2023-06-06T10:25:12.438Z,18.69
2023-06-06T10:27:51.522Z,18.39
2023-06-06T10:30:33.175Z,18.28
2023-06-06T10:33:24.229Z,18.29
2023-06-06T10:36:01.026Z,18.07
2023-06-06T10:38:31.181Z,18.30
2023-06-06T10:41:00.425Z,18.76
2023-06-06T10:43:54.154Z,18.63
2023-06-06T10:46:26.051Z,18.82
2023-06-06T10:49:00.430Z,18.68
2023-06-06T10:51:34.138Z,19.00
2023-06-06T10:54:19.998Z,18.82
2023-06-06T10:56:56.646Z,18.82
2023-06-06T10:59:28.592Z,18.60
2023-06-06T11:02:27.810Z,18.94
2023-06-06T11:05:25.978Z,19.04
2023-06-06T11:08:03.154Z,19.08
2023-06-06T11:10:47.476Z,18.82
2023-06-06T11:13:30.949Z,18.78
2023-06-06T11:16:03.343Z,18.65
2023-06-06T11:18:41.168Z,18.69
2023-06-06T11:21:12.954Z,18.94
2023-06-06T11:23:44.174Z,19.14
2023-06-06T11:26:14.811Z,19.07
2023-06-06T11:28:50.820Z,18.82
2023-06-06T11:31:24.046Z,18.58
2023-06-06T11:33:52.912Z,18.04
2023-06-06T11:36:23.147Z,17.97
2023-06-06T11:39:01.836Z,17.85
2023-06-06T11:41:44.644Z,17.77
2023-06-06T11:44:18.936Z,17.62
2023-06-06T11:46:49.367Z,17.71
2023-06-06T11:49:19.175Z,17.89
2023-06-06T11:52:04.367Z,17.93
2023-06-06T11:54:33.319Z,18.49
2023-06-06T11:57:04.691Z,18.86
2023-06-06T11:59:37.417Z,18.76
2023-06-06T12:02:25.349Z,19.10
2023-06-06T12:05:13.923Z,19.03
2023-06-06T12:07:46.204Z,18.59
2023-06-06T12:10:14.932Z,18.73
2023-06-06T12:12:49.417Z,18.92
2023-06-06T12:15:44.912Z,18.68
2023-06-06T12:18:18.972Z,19.30
2023-06-06T12:20:56.908Z,19.27
2023-06-06T12:23:33.523Z,19.29
2023-06-06T12:26:03.825Z,19.18
2023-06-06T12:28:34.058Z,18.91
2023-06-06T12:31:20.075Z,19.01
2023-06-06T12:34:14.487Z,18.65
2023-06-06T12:36:43.602Z,19.18
2023-06-06T12:39:15.583Z,19.36
2023-06-06T12:41:46.093Z,19.02
2023-06-06T12:44:19.197Z,18.95
2023-06-06T12:46:49.633Z,18.91
2023-06-06T12:49:24.120Z,19.34
2023-06-06T12:51:55.752Z,19.58
2023-06-06T12:54:30.827Z,19.73
2023-06-06T12:57:00.664Z,19.23
2023-06-06T12:59:38.877Z,18.95
2023-06-06T13:02:09.063Z,19.39
2023-06-06T13:04:38.159Z,19.50
2023-06-06T13:07:07.481Z,19.19
2023-06-06T13:09:38.919Z,19.23
2023-06-06T13:12:09.364Z,19.12
2023-06-06T13:14:40.282Z,19.00
2023-06-06T13:17:14.306Z,19.08
2023-06-06T13:19:46.319Z,18.90
2023-06-06T13:22:20.020Z,18.84
2023-06-06T13:24:55.870Z,19.25
2023-06-06T13:27:26.942Z,19.24
2023-06-06T13:30:00.452Z,19.44
2023-06-06T13:32:32.447Z,19.61
2023-06-06T13:35:05.822Z,19.64
2023-06-06T13:37:35.005Z,19.77
2023-06-06T13:40:10.734Z,19.90
2023-06-06T13:42:48.287Z,19.96
2023-06-06T13:45:23.269Z,19.83
2023-06-06T13:48:00.829Z,20.02
2023-06-06T13:50:33.364Z,20.07
2023-06-06T13:53:06.837Z,19.79
2023-06-06T13:55:39.031Z,19.91
2023-06-06T14:01:12.728Z,20.20
2023-06-06T14:03:47.101Z,20.03
2023-06-06T14:06:22.214Z,19.96
2023-06-06T14:08:50.982Z,19.73
2023-06-06T14:11:30.840Z,19.54
2023-06-06T14:14:04.139Z,19.60
2023-06-06T14:16:44.905Z,19.76
2023-06-06T14:19:40.236Z,19.79
2023-06-06T14:22:22.165Z,20.03
2023-06-06T14:24:51.858Z,19.97
2023-06-06T14:27:20.677Z,20.03
2023-06-06T14:29:49.963Z,19.71
2023-06-06T14:32:20.656Z,19.42
2023-06-06T14:34:50.034Z,19.37
2023-06-06T14:37:18.515Z,19.45
2023-06-06T14:39:54.838Z,19.29
2023-06-06T14:42:23.625Z,19.25
2023-06-06T14:44:52.517Z,19.19
2023-06-06T14:47:26.458Z,18.95
2023-06-06T14:49:55.395Z,18.81
2023-06-06T14:52:23.870Z,18.80
2023-06-06T14:54:52.655Z,18.79
2023-06-06T14:57:25.925Z,18.74
2023-06-06T14:59:56.731Z,19.13
2023-06-06T15:02:27.362Z,19.38
2023-06-06T15:04:56.086Z,19.54
2023-06-06T15:07:27.777Z,19.56
2023-06-06T15:09:57.301Z,19.47
2023-06-06T15:12:25.907Z,19.43
2023-06-06T15:14:54.706Z,19.69
2023-06-06T15:17:27.861Z,19.60
2023-06-06T15:19:56.398Z,19.70
2023-06-06T15:22:25.568Z,19.64
2023-06-06T15:24:55.369Z,19.40
2023-06-06T15:27:25.333Z,19.29
2023-06-06T15:29:56.736Z,19.31
2023-06-06T15:32:29.025Z,19.43
2023-06-06T15:34:59.917Z,19.35
2023-06-06T15:37:30.665Z,19.22
2023-06-06T15:39:59.495Z,19.29
2023-06-06T15:42:28.204Z,19.29
2023-06-06T15:44:58.107Z,19.32
2023-06-06T15:47:27.580Z,19.36
2023-06-06T15:49:56.117Z,19.32
2023-06-06T15:52:26.500Z,19.26
2023-06-06T15:54:55.135Z,19.29
2023-06-06T15:57:23.915Z,19.17
2023-06-06T15:59:52.624Z,19.13
2023-06-06T16:02:23.947Z,19.10
2023-06-06T16:04:52.569Z,19.06
2023-06-06T16:07:21.004Z,18.96
2023-06-06T16:09:53.601Z,19.03
2023-06-06T16:12:22.396Z,19.05
2023-06-06T16:14:51.861Z,19.15
2023-06-06T16:17:20.545Z,19.27
2023-06-06T16:19:49.111Z,19.30
2023-06-06T16:22:17.846Z,19.32
2023-06-06T16:24:48.889Z,19.23
2023-06-06T16:27:18.988Z,19.13
2023-06-06T16:29:47.642Z,18.90
2023-06-06T16:32:18.088Z,18.79
2023-06-06T16:34:48.120Z,18.48
2023-06-06T16:37:17.384Z,18.53
2023-06-06T16:39:49.493Z,18.38
2023-06-06T16:42:19.630Z,18.31
2023-06-06T16:44:50.362Z,18.35
2023-06-06T16:47:20.383Z,18.38
2023-06-06T16:49:50.692Z,18.34
2023-06-06T16:52:22.072Z,18.42
2023-06-06T16:54:50.648Z,18.37
2023-06-06T16:57:20.862Z,18.34
2023-06-06T16:59:50.683Z,18.31
2023-06-06T17:02:20.889Z,18.25
2023-06-06T17:04:50.824Z,18.27
2023-06-06T17:07:21.240Z,18.20
2023-06-06T17:09:53.495Z,18.20
2023-06-06T17:12:25.948Z,18.04
2023-06-06T17:14:55.149Z,17.99
2023-06-06T17:17:24.430Z,17.88
2023-06-06T17:19:53.376Z,17.79
2023-06-06T17:22:24.368Z,17.76
2023-06-06T17:24:57.638Z,17.70
2023-06-06T17:27:27.748Z,17.68
2023-06-06T17:29:57.238Z,17.66
2023-06-06T17:32:27.815Z,17.57
2023-06-06T17:34:56.437Z,17.51
2023-06-06T17:37:25.026Z,17.42
2023-06-06T17:39:53.679Z,17.41
2023-06-06T17:42:23.301Z,17.36
2023-06-06T17:44:54.805Z,17.25
2023-06-06T17:47:25.465Z,17.14
2023-06-06T17:49:54.090Z,17.10
2023-06-06T17:52:22.954Z,17.07
2023-06-06T17:54:51.595Z,17.06
2023-06-06T17:57:21.558Z,16.84
2023-06-06T17:59:55.155Z,16.89
2023-06-06T18:02:26.899Z,16.80
2023-06-06T18:04:55.615Z,16.65
2023-06-06T18:07:24.182Z,16.76
2023-06-06T18:09:52.622Z,16.63
2023-06-06T18:12:21.567Z,16.52
2023-06-06T18:14:53.133Z,16.54
2023-06-06T18:17:23.318Z,16.59
2023-06-06T18:19:54.088Z,16.65
2023-06-06T18:22:23.328Z,16.68
2023-06-06T18:24:52.522Z,16.58
2023-06-06T18:27:21.743Z,16.48
2023-06-06T18:29:52.205Z,16.50
2023-06-06T18:32:22.278Z,16.42
2023-06-06T18:34:51.775Z,16.41
2023-06-06T18:37:21.740Z,16.50
2023-06-06T18:39:51.887Z,16.40
2023-06-06T18:42:23.129Z,16.30
2023-06-06T18:44:51.729Z,16.32
2023-06-06T18:47:20.362Z,16.21
2023-06-06T18:49:51.691Z,16.25
2023-06-06T18:52:20.714Z,16.18
2023-06-06T18:54:50.581Z,16.18
2023-06-06T18:57:19.253Z,16.08
2023-06-06T18:59:48.010Z,15.92
2023-06-06T19:02:18.855Z,15.93
2023-06-06T19:04:51.489Z,15.78
2023-06-06T19:07:22.532Z,15.82
2023-06-06T19:09:51.135Z,15.78
2023-06-06T19:12:22.618Z,15.73
2023-06-06T19:14:54.964Z,15.75
2023-06-06T19:17:23.578Z,15.70
2023-06-06T19:19:52.061Z,15.61
2023-06-06T19:22:22.318Z,15.42
2023-06-06T19:24:50.796Z,15.37
2023-06-06T19:27:19.294Z,15.19
2023-06-06T19:29:49.040Z,15.14
2023-06-06T19:32:22.418Z,15.06
2023-06-06T19:34:52.844Z,14.97
2023-06-06T19:37:22.758Z,14.91
2023-06-06T19:39:53.691Z,14.77
2023-06-06T19:42:24.672Z,14.66
2023-06-06T19:44:53.434Z,14.46
2023-06-06T19:47:22.285Z,14.47
2023-06-06T19:49:50.891Z,14.60
2023-06-06T19:52:20.653Z,14.60
2023-06-06T19:54:50.618Z,14.49
2023-06-06T19:57:19.311Z,14.47
2023-06-06T19:59:48.104Z,14.38
2023-06-06T20:02:19.362Z,14.20
2023-06-06T20:04:48.069Z,14.07
2023-06-06T20:07:16.543Z,13.95
2023-06-06T20:09:45.304Z,13.78
2023-06-06T20:12:17.161Z,13.91
2023-06-06T20:14:46.084Z,14.02
2023-06-06T20:17:14.578Z,14.10
2023-06-06T20:19:43.251Z,13.88
2023-06-06T20:22:13.370Z,14.03
2023-06-06T20:24:42.306Z,14.18
2023-06-06T20:27:16.383Z,14.19
2023-06-06T20:29:45.356Z,13.98
2023-06-06T20:32:14.263Z,13.93
2023-06-06T20:34:42.977Z,13.83
2023-06-06T20:37:12.427Z,13.67
2023-06-06T20:39:53.348Z,13.69
2023-06-06T20:42:24.258Z,13.56
2023-06-06T20:44:53.191Z,13.53
2023-06-06T20:47:21.675Z,13.48
2023-06-06T20:49:50.507Z,13.43
2023-06-06T20:52:20.747Z,13.34
2023-06-06T20:54:49.535Z,13.39
2023-06-06T20:57:18.109Z,13.29
2023-06-06T20:59:48.030Z,13.36
2023-06-06T21:02:16.478Z,13.00
2023-06-06T21:04:45.033Z,13.14
2023-06-06T21:07:13.968Z,12.85
2023-06-06T21:09:42.518Z,12.89
2023-06-06T21:12:11.486Z,12.68
2023-06-06T21:14:40.015Z,12.50
2023-06-06T21:17:10.087Z,12.76
2023-06-06T21:19:41.782Z,12.69
2023-06-06T21:22:10.368Z,12.60
2023-06-06T21:24:38.784Z,12.64
2023-06-06T21:27:10.839Z,12.76
2023-06-06T21:29:39.460Z,12.79
2023-06-06T21:32:10.402Z,12.72
2023-06-06T21:34:39.180Z,12.62
2023-06-06T21:37:07.653Z,12.71
2023-06-06T21:39:36.449Z,12.65
2023-06-06T21:42:06.305Z,12.56
2023-06-06T21:44:35.091Z,12.62
2023-06-06T21:47:03.580Z,12.54
2023-06-06T21:49:33.653Z,12.43
2023-06-06T21:52:02.192Z,12.27
2023-06-06T21:54:31.065Z,12.15
2023-06-06T21:57:01.430Z,12.06
2023-06-06T21:59:30.218Z,11.99
2023-06-06T22:01:58.688Z,12.09
2023-06-06T22:04:27.401Z,11.93
2023-06-06T22:07:00.273Z,11.95
2023-06-06T22:09:29.058Z,11.92
2023-06-06T22:11:59.732Z,11.93
2023-06-06T22:14:28.291Z,12.01
2023-06-06T22:16:56.704Z,11.97
2023-06-06T22:19:25.276Z,11.94
2023-06-06T22:21:54.021Z,11.92
2023-06-06T22:24:24.456Z,12.00
2023-06-06T22:26:54.525Z,11.85
2023-06-06T22:29:23.156Z,11.86
2023-06-06T22:31:52.281Z,11.87
2023-06-06T22:34:22.702Z,11.88
2023-06-06T22:36:51.848Z,11.92
2023-06-06T22:39:21.346Z,11.94
2023-06-06T22:41:51.354Z,11.98
2023-06-06T22:44:23.072Z,11.89
2023-06-06T22:46:52.129Z,11.92
2023-06-06T22:49:20.774Z,11.90
2023-06-06T22:51:49.376Z,11.90
2023-06-06T22:54:17.839Z,11.90
2023-06-06T22:56:46.539Z,11.87
2023-06-06T22:59:16.934Z,11.90
2023-06-06T23:01:45.541Z,11.86
2023-06-06T23:04:13.990Z,11.83
2023-06-06T23:06:42.555Z,11.72
2023-06-06T23:09:11.108Z,11.57
2023-06-06T23:11:39.949Z,11.60
2023-06-06T23:14:08.542Z,11.80
2023-06-06T23:16:38.913Z,11.89
2023-06-06T23:19:07.417Z,11.87
2023-06-06T23:21:37.300Z,11.81
2023-06-06T23:24:07.625Z,11.82
2023-06-06T23:26:36.525Z,11.74
2023-06-06T23:29:05.113Z,11.67
2023-06-06T23:31:33.736Z,11.75
2023-06-06T23:34:03.866Z,11.62
2023-06-06T23:36:32.805Z,11.45
2023-06-06T23:39:01.563Z,11.41
2023-06-06T23:41:30.531Z,11.38
2023-06-06T23:44:00.168Z,11.35
2023-06-06T23:46:28.777Z,11.28
2023-06-06T23:48:58.725Z,11.28
2023-06-06T23:51:30.422Z,11.25
2023-06-06T23:53:58.963Z,11.23
2023-06-06T23:56:27.518Z,11.00
2023-06-06T23:58:56.153Z,11.06
